Time;durP1;ratioP1;P1;durP2;ratioP2;P2;SDS_P1;SDS_P2;PMS_P1;PMS_P2;Temp;Humidity;BMP_temperature;BMP_pressure;BME280_temperature;BME280_humidity;BME280_pressure;Samples;Min_cycle;Max_cycle;Signal;HPM_P1;HPM_P2
2023/10/25 00:02:24;;;;;;;14.15;4.93;;;10.20;97.10;;;;;;4993003;28;20481;-86
2023/10/25 00:04:56;;;;;;;12.00;3.85;;;10.10;97.00;;;;;;4966224;28;20045;-86
2023/10/25 00:07:22;;;;;;;9.68;3.28;;;10.10;97.00;;;;;;4952516;28;20034;-85
2023/10/25 00:09:48;;;;;;;9.38;3.15;;;10.10;97.00;;;;;;4966746;28;20112;-85
2023/10/25 00:12:13;;;;;;;7.90;3.28;;;10.10;97.10;;;;;;4961577;28;20038;-85
2023/10/25 00:14:39;;;;;;;9.25;3.30;;;10.10;97.10;;;;;;4960456;28;20043;-85
2023/10/25 00:17:05;;;;;;;9.98;3.47;;;10.10;97.10;;;;;;4960196;28;20133;-86
2023/10/25 00:19:31;;;;;;;7.28;2.55;;;10.10;96.90;;;;;;4960108;28;20379;-85
2023/10/25 00:21:56;;;;;;;10.50;3.80;;;10.10;96.90;;;;;;4963573;28;20042;-85
2023/10/25 00:24:23;;;;;;;6.97;2.92;;;10.10;96.90;;;;;;4964545;28;20078;-85
2023/10/25 00:26:49;;;;;;;9.65;3.20;;;10.10;96.80;;;;;;4964340;28;20100;-86
2023/10/25 00:29:15;;;;;;;9.45;3.22;;;10.10;96.90;;;;;;4948355;28;20038;-86
2023/10/25 00:31:41;;;;;;;9.70;3.60;;;10.00;96.80;;;;;;4948540;28;20074;-85
2023/10/25 00:34:06;;;;;;;10.32;3.60;;;10.00;96.80;;;;;;4964421;28;20129;-86
2023/10/25 00:36:32;;;;;;;10.80;3.60;;;10.00;96.90;;;;;;4948403;28;20046;-85
2023/10/25 00:38:57;;;;;;;7.85;3.67;;;10.00;96.90;;;;;;4948090;28;20133;-85
2023/10/25 00:41:23;;;;;;;9.45;3.33;;;10.00;96.90;;;;;;4932522;28;20043;-86
2023/10/25 00:43:49;;;;;;;8.95;3.30;;;10.00;96.80;;;;;;4963928;28;20509;-85
2023/10/25 00:46:19;;;;;;;9.27;3.78;;;9.90;96.70;;;;;;4931782;28;20459;-85
2023/10/25 00:48:49;;;;;;;9.43;3.38;;;9.80;96.70;;;;;;4996572;28;20039;-85
2023/10/25 00:51:15;;;;;;;9.27;3.35;;;9.80;96.70;;;;;;4963595;28;20129;-86
2023/10/25 00:53:45;;;;;;;7.75;3.10;;;9.70;96.80;;;;;;4948021;28;20129;-86
2023/10/25 00:56:12;;;;;;;9.38;3.28;;;9.70;96.80;;;;;;4995855;28;20039;-85
2023/10/25 00:58:43;;;;;;;7.80;3.53;;;9.60;96.80;;;;;;4995562;28;20062;-85
2023/10/25 01:01:09;;;;;;;10.88;2.90;;;9.60;96.90;;;;;;4981751;28;20046;-85
2023/10/25 01:03:35;;;;;;;6.70;3.13;;;9.60;96.90;;;;;;4979463;28;20061;-85
2023/10/25 01:06:02;;;;;;;5.32;3.28;;;9.60;96.80;;;;;;4995729;28;20038;-85
2023/10/25 01:08:28;;;;;;;9.45;4.00;;;9.60;96.80;;;;;;4995844;28;20061;-86
2023/10/25 01:10:54;;;;;;;9.57;3.97;;;9.60;96.90;;;;;;4947540;28;20074;-85
2023/10/25 01:13:21;;;;;;;10.85;3.83;;;9.60;96.90;;;;;;4996037;28;20078;-85
2023/10/25 01:15:48;;;;;;;10.70;3.95;;;9.60;96.90;;;;;;4963643;28;20042;-85
2023/10/25 01:18:14;;;;;;;10.60;3.97;;;9.50;97.00;;;;;;4995424;28;20078;-85
2023/10/25 01:20:41;;;;;;;12.20;4.10;;;9.50;97.10;;;;;;4979350;28;20084;-85
2023/10/25 01:23:07;;;;;;;8.73;3.85;;;9.50;97.10;;;;;;4995405;28;20514;-85
2023/10/25 01:25:33;;;;;;;14.75;5.00;;;9.50;97.10;;;;;;4963958;28;20043;-84
2023/10/25 01:27:59;;;;;;;11.20;4.60;;;9.50;97.20;;;;;;4995194;28;20505;-86
2023/10/25 01:30:26;;;;;;;7.45;4.55;;;9.60;97.30;;;;;;4995307;28;20129;-85
2023/10/25 01:32:53;;;;;;;13.00;5.40;;;9.50;97.30;;;;;;4930927;28;20130;-85
2023/10/25 01:35:18;;;;;;;11.45;5.88;;;9.60;97.30;;;;;;4979107;28;20100;-85
2023/10/25 01:37:44;;;;;;;11.57;5.72;;;9.60;97.30;;;;;;4995003;28;20069;-85
2023/10/25 01:40:10;;;;;;;9.63;6.00;;;9.60;97.40;;;;;;4963180;28;20403;-85
2023/10/25 01:42:36;;;;;;;11.32;6.18;;;9.60;97.20;;;;;;4963361;28;20488;-85
2023/10/25 01:45:02;;;;;;;14.80;6.68;;;9.70;97.30;;;;;;4946768;28;20042;-84
2023/10/25 01:47:28;;;;;;;9.55;5.75;;;9.70;97.10;;;;;;4994841;28;20069;-85
2023/10/25 01:49:54;;;;;;;11.10;6.55;;;9.70;97.10;;;;;;4994587;28;20038;-85
2023/10/25 01:52:20;;;;;;;16.10;7.15;;;9.70;97.20;;;;;;4946720;28;20038;-85
2023/10/25 01:54:47;;;;;;;11.98;7.00;;;9.70;97.30;;;;;;4994771;28;20065;-85
2023/10/25 01:57:13;;;;;;;13.65;7.35;;;9.70;97.50;;;;;;4962942;28;20042;-85
2023/10/25 01:59:40;;;;;;;11.20;6.93;;;9.70;97.40;;;;;;4962065;28;20112;-84
2023/10/25 02:02:05;;;;;;;12.85;6.68;;;9.70;97.30;;;;;;4964317;28;20141;-85
2023/10/25 02:04:31;;;;;;;15.45;7.18;;;9.70;97.40;;;;;;4930588;28;20128;-85
2023/10/25 02:06:56;;;;;;;11.48;6.82;;;9.60;97.40;;;;;;4930533;28;20096;-85
2023/10/25 02:09:22;;;;;;;14.00;7.13;;;9.60;97.40;;;;;;4946444;28;20483;-85
2023/10/25 02:11:48;;;;;;;14.93;7.07;;;9.60;97.40;;;;;;4930408;28;20383;-85
2023/10/25 02:14:14;;;;;;;14.95;8.15;;;9.60;97.30;;;;;;4962099;28;20045;-85
2023/10/25 02:16:40;;;;;;;16.48;8.10;;;9.60;97.30;;;;;;4946358;28;20046;-85
2023/10/25 02:19:05;;;;;;;16.67;9.80;;;9.50;97.30;;;;;;4962096;28;20042;-85
2023/10/25 02:21:37;;;;;;;13.95;8.07;;;9.50;97.30;;;;;;4962051;28;20046;-85
2023/10/25 02:24:04;;;;;;;17.23;9.48;;;9.50;97.40;;;;;;4931743;28;20042;-85
2023/10/25 02:26:29;;;;;;;14.05;8.15;;;9.50;97.50;;;;;;4980261;28;20061;-84
2023/10/25 02:28:55;;;;;;;18.48;9.23;;;9.50;97.60;;;;;;4977992;28;20506;-85
2023/10/25 02:31:22;;;;;;;21.88;9.98;;;9.40;97.60;;;;;;4994095;28;20073;-85
2023/10/25 02:33:47;;;;;;;16.00;9.75;;;9.40;97.70;;;;;;4994074;28;20550;-85
2023/10/25 02:36:13;;;;;;;14.88;9.10;;;9.40;97.70;;;;;;4929973;28;20138;-84
2023/10/25 02:38:39;;;;;;;13.57;9.27;;;9.40;97.70;;;;;;4929876;28;20077;-85
2023/10/25 02:41:05;;;;;;;19.13;10.65;;;9.40;97.70;;;;;;4961797;28;20450;-85
2023/10/25 02:43:30;;;;;;;17.05;10.63;;;9.30;97.70;;;;;;4929274;28;20049;-85
2023/10/25 02:46:05;;;;;;;16.30;10.18;;;9.30;97.70;;;;;;4977635;28;20049;-85
2023/10/25 02:48:31;;;;;;;21.38;10.20;;;9.30;97.80;;;;;;4961852;28;20050;-85
2023/10/25 02:50:59;;;;;;;17.55;9.90;;;9.30;97.80;;;;;;4977567;28;20399;-85
2023/10/25 02:53:25;;;;;;;19.42;10.10;;;9.30;97.80;;;;;;4961802;28;20121;-85
2023/10/25 02:55:51;;;;;;;21.75;10.00;;;9.30;97.80;;;;;;4961677;28;20181;-85
2023/10/25 02:58:16;;;;;;;18.02;10.73;;;9.30;97.80;;;;;;4961100;28;20141;-85
2023/10/25 03:00:42;;;;;;;16.10;10.55;;;9.30;97.80;;;;;;4961447;28;20053;-85
2023/10/25 03:03:08;;;;;;;20.95;11.70;;;9.30;97.80;;;;;;4977373;28;20181;-85
2023/10/25 03:05:33;;;;;;;19.52;11.02;;;9.30;97.80;;;;;;4977231;28;20042;-85
2023/10/25 03:07:59;;;;;;;20.63;10.55;;;9.30;97.80;;;;;;4945088;28;20038;-85
2023/10/25 03:10:25;;;;;;;21.55;10.65;;;9.30;97.90;;;;;;4961139;28;20038;-85
2023/10/25 03:12:51;;;;;;;19.75;11.73;;;9.30;97.90;;;;;;4976966;28;20044;-85
2023/10/25 03:15:17;;;;;;;19.15;10.98;;;9.30;97.90;;;;;;4929223;28;20074;-85
2023/10/25 03:17:43;;;;;;;25.55;11.88;;;9.20;97.90;;;;;;4960894;28;20129;-85
2023/10/25 03:20:09;;;;;;;20.40;11.85;;;9.20;97.90;;;;;;4945418;28;20129;-85
2023/10/25 03:22:35;;;;;;;13.23;10.27;;;9.20;97.90;;;;;;4962061;28;20555;-85
2023/10/25 03:25:00;;;;;;;16.55;10.05;;;9.20;97.90;;;;;;4928984;28;20129;-85
2023/10/25 03:27:26;;;;;;;16.73;9.98;;;9.20;97.90;;;;;;4977693;28;20411;-85
2023/10/25 03:29:52;;;;;;;22.00;9.88;;;9.10;97.70;;;;;;4944682;28;20067;-85
2023/10/25 03:32:17;;;;;;;22.15;9.45;;;9.10;97.80;;;;;;4961076;28;20118;-85
2023/10/25 03:34:43;;;;;;;13.98;9.55;;;9.00;97.70;;;;;;4928942;28;20126;-85
2023/10/25 03:37:09;;;;;;;12.98;8.73;;;9.00;97.80;;;;;;4992759;28;20515;-86
2023/10/25 03:39:36;;;;;;;13.75;9.73;;;9.00;97.70;;;;;;4992951;28;20042;-85
2023/10/25 03:42:03;;;;;;;16.45;9.27;;;8.90;97.70;;;;;;4992967;28;20038;-85
2023/10/25 03:44:29;;;;;;;16.10;10.57;;;8.90;97.70;;;;;;4993038;28;20088;-85
2023/10/25 03:46:54;;;;;;;21.70;14.13;;;8.90;97.70;;;;;;4960542;28;20086;-85
2023/10/25 03:49:20;;;;;;;19.25;12.48;;;8.90;97.70;;;;;;4946987;28;20521;-85
2023/10/25 03:51:46;;;;;;;21.15;14.60;;;8.80;97.70;;;;;;4961660;28;20495;-85
2023/10/25 03:54:12;;;;;;;18.75;11.88;;;8.80;97.70;;;;;;4960276;28;20556;-85
2023/10/25 03:56:39;;;;;;;28.00;17.02;;;8.80;97.70;;;;;;4960860;28;20053;-85
2023/10/25 03:59:04;;;;;;;22.73;13.55;;;8.80;97.80;;;;;;4944252;28;20141;-85
2023/10/25 04:01:30;;;;;;;22.42;13.02;;;8.80;97.70;;;;;;4960220;28;20137;-86
2023/10/25 04:03:56;;;;;;;22.83;14.60;;;8.80;97.80;;;;;;4976636;28;20123;-85
2023/10/25 04:06:21;;;;;;;22.38;13.73;;;8.80;97.80;;;;;;4944230;28;20622;-85
2023/10/25 04:08:47;;;;;;;19.35;12.18;;;8.80;97.70;;;;;;4976285;28;20402;-85
2023/10/25 04:11:13;;;;;;;21.40;12.55;;;8.80;97.70;;;;;;4976170;28;20089;-85
2023/10/25 04:13:38;;;;;;;20.83;13.65;;;8.80;97.70;;;;;;4945059;28;20046;-85
2023/10/25 04:16:09;;;;;;;25.67;13.20;;;8.70;97.70;;;;;;4961144;28;20129;-85
2023/10/25 04:18:36;;;;;;;20.35;11.98;;;8.70;97.70;;;;;;4976579;28;20078;-85
2023/10/25 04:21:03;;;;;;;23.00;13.85;;;8.70;97.70;;;;;;4962960;28;20376;-85
2023/10/25 04:23:30;;;;;;;20.52;13.82;;;8.70;97.70;;;;;;4976545;28;20042;-85
2023/10/25 04:26:12;;;;;;;20.98;14.93;;;8.60;97.70;;;;;;4960029;28;20052;-85
2023/10/25 04:28:41;;;;;;;24.10;14.95;;;8.60;97.70;;;;;;4977726;28;20132;-85
2023/10/25 04:31:07;;;;;;;20.67;13.98;;;8.60;97.70;;;;;;4978926;28;20049;-85
2023/10/25 04:33:33;;;;;;;23.55;14.07;;;8.60;97.70;;;;;;4944450;28;20406;-85
2023/10/25 04:35:58;;;;;;;23.52;14.70;;;8.60;97.60;;;;;;4928331;28;20046;-85
2023/10/25 04:38:24;;;;;;;22.08;14.85;;;8.60;97.60;;;;;;4975988;28;20042;-84
2023/10/25 04:40:53;;;;;;;27.33;15.45;;;8.50;97.50;;;;;;4992162;28;20066;-84
2023/10/25 04:43:19;;;;;;;25.75;14.43;;;8.50;97.50;;;;;;4960504;28;20046;-84
2023/10/25 04:45:48;;;;;;;25.95;15.35;;;8.50;97.50;;;;;;4959966;28;20475;-84
2023/10/25 04:48:14;;;;;;;21.95;14.68;;;8.40;97.50;;;;;;4979728;28;20102;-84
2023/10/25 04:50:40;;;;;;;24.60;16.95;;;8.40;97.50;;;;;;4965468;28;20041;-84
2023/10/25 04:53:06;;;;;;;24.23;16.08;;;8.40;97.50;;;;;;4963630;28;20038;-84
2023/10/25 04:55:34;;;;;;;25.55;17.05;;;8.30;97.50;;;;;;4977351;28;20482;-85
2023/10/25 04:58:00;;;;;;;22.58;16.73;;;8.30;97.50;;;;;;4992066;28;20058;-84
2023/10/25 05:00:27;;;;;;;23.48;15.65;;;8.20;97.50;;;;;;4976067;28;20045;-85
2023/10/25 05:02:54;;;;;;;22.08;16.45;;;8.20;97.60;;;;;;4959888;28;20510;-84
2023/10/25 05:05:19;;;;;;;25.08;16.73;;;8.20;97.60;;;;;;4960076;28;20454;-85
2023/10/25 05:07:46;;;;;;;26.45;17.50;;;8.20;97.60;;;;;;4946494;28;20043;-84
2023/10/25 05:10:12;;;;;;;25.45;18.10;;;8.20;97.60;;;;;;4979470;28;20043;-84
2023/10/25 05:12:44;;;;;;;24.63;17.10;;;8.20;97.60;;;;;;4963410;28;20124;-85
2023/10/25 05:15:12;;;;;;;27.20;18.50;;;8.10;97.60;;;;;;4983535;28;20049;-85
2023/10/25 05:17:38;;;;;;;25.88;17.73;;;8.10;97.70;;;;;;5015428;28;20048;-84
2023/10/25 05:20:06;;;;;;;24.55;17.02;;;8.10;97.70;;;;;;4999588;28;20066;-85
2023/10/25 05:22:42;;;;;;;24.90;17.38;;;8.10;97.60;;;;;;4982848;28;20132;-84
2023/10/25 05:25:09;;;;;;;25.55;17.50;;;8.10;97.70;;;;;;4998930;28;20101;-84
2023/10/25 05:27:37;;;;;;;22.60;16.67;;;8.10;97.70;;;;;;4983828;28;20056;-85
2023/10/25 05:30:04;;;;;;;24.00;17.17;;;8.10;97.60;;;;;;4982848;28;20131;-84
2023/10/25 05:32:35;;;;;;;28.33;17.25;;;8.10;97.70;;;;;;4982600;28;20405;-85
2023/10/25 05:35:03;;;;;;;26.17;18.38;;;8.10;97.70;;;;;;4966439;28;20199;-84
2023/10/25 05:37:30;;;;;;;26.50;17.95;;;8.10;97.80;;;;;;4982367;28;20037;-84
2023/10/25 05:39:56;;;;;;;23.88;16.23;;;8.10;97.80;;;;;;4966303;28;20038;-85
2023/10/25 05:42:27;;;;;;;25.65;16.92;;;8.10;97.80;;;;;;4999015;28;20085;-86
2023/10/25 05:44:56;;;;;;;20.67;14.95;;;8.10;97.70;;;;;;4998738;28;20435;-84
2023/10/25 05:47:25;;;;;;;26.58;17.10;;;8.10;97.80;;;;;;4998585;28;20073;-85
2023/10/25 05:49:52;;;;;;;22.80;16.65;;;8.10;97.70;;;;;;4999243;28;20092;-86
2023/10/25 05:52:18;;;;;;;22.17;15.35;;;8.10;97.80;;;;;;4968780;28;20042;-84
2023/10/25 05:54:45;;;;;;;24.45;17.33;;;8.10;97.80;;;;;;5000266;28;20485;-85
2023/10/25 05:57:12;;;;;;;27.25;16.08;;;8.10;97.70;;;;;;5000571;28;20042;-84
2023/10/25 05:59:38;;;;;;;23.38;15.52;;;8.10;97.70;;;;;;4985823;28;20482;-84
2023/10/25 06:02:14;;;;;;;24.63;17.45;;;8.00;97.70;;;;;;4982576;28;20052;-85
2023/10/25 06:04:42;;;;;;;20.33;14.85;;;8.00;97.70;;;;;;4982170;28;20053;-84
2023/10/25 06:07:13;;;;;;;27.65;15.82;;;8.00;97.70;;;;;;5001597;28;20060;-84
2023/10/25 06:09:39;;;;;;;23.20;15.80;;;8.00;97.70;;;;;;4948365;28;20042;-85
2023/10/25 06:12:07;;;;;;;25.25;15.25;;;8.00;97.70;;;;;;4979317;28;20038;-84
2023/10/25 06:14:33;;;;;;;29.30;15.20;;;8.00;97.70;;;;;;4962939;28;20101;-84
2023/10/25 06:16:59;;;;;;;20.20;14.02;;;8.00;97.80;;;;;;4978677;28;20581;-84
2023/10/25 06:19:25;;;;;;;21.38;14.48;;;8.00;97.70;;;;;;4961552;28;20048;-84
2023/10/25 06:21:51;;;;;;;26.15;14.73;;;8.00;97.70;;;;;;4978598;28;20046;-86
2023/10/25 06:24:17;;;;;;;25.10;14.70;;;7.90;97.80;;;;;;4975320;28;20133;-85
2023/10/25 06:26:43;;;;;;;21.25;14.73;;;7.90;97.70;;;;;;4999426;28;20101;-84
2023/10/25 06:29:09;;;;;;;18.98;13.85;;;7.90;97.80;;;;;;4955110;28;20092;-85
2023/10/25 06:31:34;;;;;;;22.55;13.90;;;7.90;97.70;;;;;;4946171;28;20475;-85
2023/10/25 06:34:00;;;;;;;21.67;14.00;;;7.90;97.80;;;;;;4962409;28;20045;-86
2023/10/25 06:36:26;;;;;;;23.52;14.90;;;7.90;97.80;;;;;;4980169;28;20101;-85
2023/10/25 06:38:52;;;;;;;20.85;13.73;;;7.90;97.80;;;;;;4996098;28;20042;-84
2023/10/25 06:41:22;;;;;;;19.80;13.52;;;7.90;97.80;;;;;;4962510;28;20053;-84
2023/10/25 06:43:48;;;;;;;18.77;13.18;;;8.00;97.80;;;;;;4978860;28;20043;-85
2023/10/25 06:46:14;;;;;;;20.55;12.48;;;8.00;97.80;;;;;;4978367;28;20042;-85
2023/10/25 06:48:40;;;;;;;16.85;12.38;;;8.00;97.90;;;;;;4978291;28;20136;-85
2023/10/25 06:51:07;;;;;;;18.33;12.38;;;8.00;97.80;;;;;;4962135;28;20061;-85
2023/10/25 06:53:33;;;;;;;18.77;11.98;;;8.00;97.80;;;;;;4978195;28;20403;-84
2023/10/25 06:55:59;;;;;;;20.95;12.35;;;8.00;97.80;;;;;;4962366;28;20038;-83
2023/10/25 06:58:26;;;;;;;21.52;11.98;;;8.00;97.70;;;;;;4961733;28;20093;-84
2023/10/25 07:00:54;;;;;;;18.40;12.68;;;8.00;97.70;;;;;;4978600;28;20042;-85
2023/10/25 07:03:45;;;;;;;20.98;11.80;;;8.00;97.70;;;;;;4947654;28;20034;-85
2023/10/25 07:06:12;;;;;;;18.52;12.93;;;8.00;97.60;;;;;;4969982;28;20046;-84
2023/10/25 07:08:38;;;;;;;17.90;11.73;;;8.00;97.70;;;;;;4985513;28;20486;-84
2023/10/25 07:11:03;;;;;;;19.35;11.40;;;8.00;97.60;;;;;;5001197;28;20042;-85
2023/10/25 07:13:30;;;;;;;16.30;11.45;;;7.90;97.60;;;;;;4980203;28;20053;-82
2023/10/25 07:15:56;;;;;;;18.55;12.00;;;8.00;97.60;;;;;;4966937;28;20106;-85
2023/10/25 07:18:23;;;;;;;17.08;11.38;;;7.90;97.60;;;;;;4977534;28;20042;-84
2023/10/25 07:20:50;;;;;;;16.20;10.25;;;7.90;97.50;;;;;;4967753;28;20042;-83
2023/10/25 07:23:16;;;;;;;19.52;12.88;;;7.80;97.50;;;;;;4986573;28;20045;-82
2023/10/25 07:25:45;;;;;;;16.23;10.95;;;7.90;97.50;;;;;;5001755;28;20102;-83
2023/10/25 07:28:11;;;;;;;18.85;10.95;;;7.90;97.50;;;;;;4962705;28;20069;-86
2023/10/25 07:30:37;;;;;;;16.52;11.75;;;7.80;97.40;;;;;;4946631;28;20476;-85
2023/10/25 07:33:03;;;;;;;17.45;12.27;;;7.80;97.40;;;;;;4947004;28;20510;-85
2023/10/25 07:35:28;;;;;;;20.65;12.77;;;7.80;97.50;;;;;;4945003;28;20042;-85
2023/10/25 07:37:54;;;;;;;18.70;13.15;;;7.80;97.50;;;;;;4945119;28;20042;-85
2023/10/25 07:40:20;;;;;;;17.27;12.00;;;7.80;97.50;;;;;;4944684;28;20066;-85
2023/10/25 07:42:48;;;;;;;19.15;11.20;;;7.70;97.50;;;;;;4945054;28;20046;-86
2023/10/25 07:45:14;;;;;;;15.77;11.38;;;7.80;97.50;;;;;;4961555;28;20046;-85
2023/10/25 07:47:40;;;;;;;19.33;10.88;;;7.80;97.60;;;;;;4993235;28;20042;-85
2023/10/25 07:50:07;;;;;;;18.92;10.75;;;7.80;97.60;;;;;;4944765;28;20034;-85
2023/10/25 07:52:35;;;;;;;13.80;10.13;;;7.80;97.60;;;;;;4987666;28;20147;-84
2023/10/25 07:55:03;;;;;;;19.02;10.15;;;7.90;97.60;;;;;;4961658;28;20050;-84
2023/10/25 07:57:29;;;;;;;14.50;8.90;;;7.80;97.50;;;;;;4977302;28;20049;-84
2023/10/25 07:59:55;;;;;;;17.25;10.27;;;7.80;97.40;;;;;;4975897;28;20061;-84
2023/10/25 08:02:20;;;;;;;15.45;9.93;;;7.80;97.60;;;;;;4956856;28;20055;-84
2023/10/25 08:04:46;;;;;;;11.05;9.27;;;8.00;97.50;;;;;;4944350;28;20108;-84
2023/10/25 08:07:12;;;;;;;15.60;8.77;;;7.90;97.60;;;;;;4925411;28;20478;-84
2023/10/25 08:09:40;;;;;;;16.80;9.43;;;8.00;97.60;;;;;;4926266;28;20046;-84
2023/10/25 08:12:06;;;;;;;20.52;9.77;;;8.00;97.60;;;;;;4957111;28;20488;-84
2023/10/25 08:14:32;;;;;;;18.17;10.82;;;8.10;97.60;;;;;;4982922;28;20047;-84
2023/10/25 08:16:57;;;;;;;19.17;10.77;;;8.10;97.60;;;;;;4969551;28;20038;-84
2023/10/25 08:19:23;;;;;;;16.83;10.32;;;8.10;97.60;;;;;;4976353;28;20047;-84
2023/10/25 08:21:49;;;;;;;16.98;10.70;;;8.20;97.60;;;;;;4950088;28;20051;-84
2023/10/25 08:24:14;;;;;;;17.98;11.27;;;8.30;97.70;;;;;;4919501;28;20047;-84
2023/10/25 08:26:40;;;;;;;16.05;10.15;;;8.30;97.60;;;;;;4919215;28;20050;-84
2023/10/25 08:29:07;;;;;;;15.18;9.98;;;8.30;97.60;;;;;;4958231;28;20516;-84
2023/10/25 08:31:36;;;;;;;17.27;10.38;;;8.40;97.60;;;;;;4946183;28;20042;-84
2023/10/25 08:34:02;;;;;;;15.77;9.55;;;8.50;97.60;;;;;;4972595;28;20035;-83
2023/10/25 08:36:30;;;;;;;14.93;10.90;;;8.50;97.60;;;;;;4944962;28;20046;-84
2023/10/25 08:38:56;;;;;;;15.00;10.57;;;8.50;97.50;;;;;;4977838;28;20053;-84
2023/10/25 08:41:24;;;;;;;14.85;10.88;;;8.60;97.50;;;;;;4932165;28;20462;-85
2023/10/25 08:43:52;;;;;;;15.35;9.63;;;8.70;97.60;;;;;;4969410;28;20093;-85
2023/10/25 08:46:19;;;;;;;15.05;9.65;;;8.70;97.60;;;;;;4955833;28;20415;-84
2023/10/25 08:48:45;;;;;;;15.98;11.48;;;8.70;97.50;;;;;;4987426;28;20057;-85
2023/10/25 08:51:14;;;;;;;17.58;11.70;;;8.80;97.50;;;;;;4962686;28;20038;-84
2023/10/25 08:53:41;;;;;;;13.57;10.45;;;8.80;97.50;;;;;;4959580;28;20141;-84
2023/10/25 08:56:10;;;;;;;14.60;9.52;;;8.90;97.50;;;;;;4955551;28;20051;-84
2023/10/25 08:58:36;;;;;;;13.95;11.05;;;8.90;97.50;;;;;;4932874;28;1196936;-85
2023/10/25 09:01:02;;;;;;;13.02;8.55;;;9.00;97.50;;;;;;4975758;28;20510;-83
2023/10/25 09:03:33;;;;;;;14.73;10.93;;;9.00;97.50;;;;;;4987453;28;20065;-84
2023/10/25 09:06:00;;;;;;;15.85;10.55;;;9.00;97.50;;;;;;4980237;28;20054;-85
2023/10/25 09:08:26;;;;;;;15.35;11.07;;;9.10;97.40;;;;;;4962565;28;20050;-84
2023/10/25 09:11:13;;;;;;;16.15;11.95;;;9.10;97.30;;;;;;4988682;28;20054;-85
2023/10/25 09:13:44;;;;;;;19.88;10.45;;;9.10;97.40;;;;;;4986861;28;20173;-84
2023/10/25 09:16:14;;;;;;;16.63;12.07;;;9.20;97.30;;;;;;4940754;28;20125;-84
2023/10/25 09:18:41;;;;;;;14.85;10.55;;;9.20;97.30;;;;;;4978209;28;20069;-84
2023/10/25 09:21:08;;;;;;;17.08;10.95;;;9.20;97.20;;;;;;4979286;28;20050;-84
2023/10/25 09:23:33;;;;;;;14.75;10.57;;;9.30;97.20;;;;;;4979413;28;20064;-83
2023/10/25 09:26:13;;;;;;;14.15;11.20;;;9.30;97.20;;;;;;4956559;28;20100;-84
2023/10/25 09:28:39;;;;;;;14.00;9.43;;;9.30;97.20;;;;;;4988578;28;20051;-84
2023/10/25 09:31:24;;;;;;;12.98;9.63;;;9.40;97.20;;;;;;4929658;28;20101;-84
2023/10/25 09:33:50;;;;;;;11.93;8.55;;;9.40;97.10;;;;;;5005160;28;20047;-84
2023/10/25 09:36:20;;;;;;;12.90;9.35;;;9.50;97.00;;;;;;4988454;28;20903;-84
2023/10/25 09:38:46;;;;;;;10.25;9.00;;;9.50;97.00;;;;;;4982236;28;20505;-84
2023/10/25 09:41:19;;;;;;;15.90;10.75;;;9.50;97.00;;;;;;4968256;28;20042;-83
2023/10/25 09:43:52;;;;;;;11.32;9.00;;;9.50;96.90;;;;;;4981715;28;20434;-83
2023/10/25 09:46:22;;;;;;;11.00;8.32;;;9.50;96.80;;;;;;4979713;28;20046;-84
2023/10/25 09:49:11;;;;;;;16.27;9.30;;;9.50;96.60;;;;;;4979186;28;20042;-83
2023/10/25 09:52:01;;;;;;;15.38;8.05;;;9.60;96.70;;;;;;4979300;28;20042;-84
2023/10/25 09:54:46;;;;;;;11.50;7.85;;;9.60;96.70;;;;;;4981108;28;20038;-84
2023/10/25 09:57:13;;;;;;;10.63;8.02;;;9.70;96.80;;;;;;4963926;28;20042;-84
2023/10/25 09:59:40;;;;;;;13.55;8.07;;;9.70;96.80;;;;;;4976776;28;20144;-83
2023/10/25 10:02:10;;;;;;;10.18;7.57;;;9.80;96.70;;;;;;4966168;28;20034;-84
2023/10/25 10:04:59;;;;;;;12.30;8.68;;;9.90;96.70;;;;;;4966410;28;20128;-83
2023/10/25 10:07:46;;;;;;;13.20;8.25;;;9.90;96.70;;;;;;4998793;28;20136;-84
2023/10/25 10:10:24;;;;;;;12.30;7.80;;;10.00;96.60;;;;;;4999475;28;20050;-83
2023/10/25 10:12:49;;;;;;;13.65;7.20;;;10.00;96.70;;;;;;5000460;28;20034;-83
2023/10/25 10:15:16;;;;;;;12.82;8.45;;;10.00;96.70;;;;;;4990107;28;20065;-83
2023/10/25 10:17:43;;;;;;;12.20;7.60;;;10.10;96.60;;;;;;5014488;28;20053;-83
2023/10/25 10:20:25;;;;;;;12.93;8.30;;;10.10;96.60;;;;;;4997845;28;20052;-84
2023/10/25 10:23:05;;;;;;;10.43;7.10;;;10.10;96.50;;;;;;4998084;28;20037;-84
2023/10/25 10:25:47;;;;;;;17.48;10.45;;;10.20;96.50;;;;;;4997881;28;20045;-84
2023/10/25 10:28:14;;;;;;;13.15;7.15;;;10.20;96.40;;;;;;4982364;28;20076;-83
2023/10/25 10:30:41;;;;;;;11.00;8.18;;;10.30;96.40;;;;;;4965722;28;20037;-84
2023/10/25 10:33:12;;;;;;;16.33;9.80;;;10.30;96.40;;;;;;5014129;28;20045;-83
2023/10/25 10:35:48;;;;;;;12.75;8.65;;;10.40;96.40;;;;;;4997264;28;20037;-83
2023/10/25 10:38:14;;;;;;;11.55;7.40;;;10.50;96.20;;;;;;4997241;28;20080;-84
2023/10/25 10:40:40;;;;;;;8.65;6.50;;;10.50;96.00;;;;;;4997416;28;20038;-83
2023/10/25 10:43:08;;;;;;;22.30;18.17;;;10.50;96.10;;;;;;4981039;28;20490;-83
2023/10/25 10:45:34;;;;;;;17.20;13.82;;;10.60;96.00;;;;;;4965385;28;20080;-86
2023/10/25 10:48:21;;;;;;;12.50;8.93;;;10.70;96.10;;;;;;4982302;28;20065;-85
2023/10/25 10:50:48;;;;;;;23.83;18.73;;;10.60;95.70;;;;;;4981616;28;20069;-85
2023/10/25 10:53:14;;;;;;;27.75;20.23;;;10.80;95.90;;;;;;4980836;28;20049;-86
2023/10/25 10:55:40;;;;;;;43.85;33.22;;;10.80;95.40;;;;;;4964660;28;20041;-85
2023/10/25 10:58:07;;;;;;;14.73;10.68;;;10.80;95.60;;;;;;4969216;28;20095;-84
2023/10/25 11:00:33;;;;;;;16.63;10.88;;;10.80;95.70;;;;;;4980890;28;20132;-85
2023/10/25 11:03:01;;;;;;;17.45;11.65;;;10.80;95.60;;;;;;4980818;28;20185;-85
2023/10/25 11:05:27;;;;;;;17.80;14.73;;;10.80;95.80;;;;;;4980156;28;20046;-84
2023/10/25 11:07:56;;;;;;;19.00;17.00;;;11.00;95.80;;;;;;4980620;28;20050;-85
2023/10/25 11:10:22;;;;;;;10.57;9.30;;;11.00;95.70;;;;;;4996561;28;20033;-84
2023/10/25 11:12:47;;;;;;;8.75;6.50;;;11.00;95.80;;;;;;4996478;28;20096;-85
2023/10/25 11:15:14;;;;;;;9.68;6.85;;;11.10;95.80;;;;;;4964358;28;20042;-85
2023/10/25 11:17:40;;;;;;;40.90;31.85;;;11.10;95.70;;;;;;4964682;28;20057;-85
2023/10/25 11:20:06;;;;;;;17.13;11.85;;;11.10;95.50;;;;;;4996440;28;20096;-85
2023/10/25 11:22:33;;;;;;;21.98;19.75;;;11.10;95.50;;;;;;4980378;28;20041;-85
2023/10/25 11:24:59;;;;;;;12.35;9.55;;;11.20;95.40;;;;;;4980193;28;20049;-86
2023/10/25 11:27:32;;;;;;;18.67;12.40;;;11.20;95.60;;;;;;4980169;28;20038;-86
2023/10/25 11:30:00;;;;;;;30.92;26.73;;;11.20;95.50;;;;;;4980132;28;20060;-86
2023/10/25 11:32:28;;;;;;;19.80;16.83;;;11.20;95.50;;;;;;4980137;28;20042;-85
2023/10/25 11:34:56;;;;;;;19.10;14.85;;;11.30;95.60;;;;;;4984631;28;20038;-85
2023/10/25 11:37:27;;;;;;;30.38;10.75;;;11.30;95.40;;;;;;4997950;28;20057;-86
2023/10/25 11:39:56;;;;;;;16.05;9.15;;;11.30;95.50;;;;;;4967134;28;20104;-85
2023/10/25 11:42:23;;;;;;;9.38;6.35;;;11.30;95.40;;;;;;4982792;28;20050;-87
2023/10/25 11:44:49;;;;;;;67.32;38.60;;;11.30;95.40;;;;;;4980806;28;20057;-86
2023/10/25 11:47:19;;;;;;;20.90;13.15;;;11.40;95.40;;;;;;4964097;28;20042;-86
2023/10/25 11:49:54;;;;;;;23.30;12.20;;;11.30;95.00;;;;;;4979993;28;20038;-87
2023/10/25 11:52:21;;;;;;;14.02;7.22;;;11.30;95.20;;;;;;4980230;28;20112;-87
2023/10/25 11:54:47;;;;;;;13.15;6.72;;;11.40;95.30;;;;;;4964298;28;20049;-86
2023/10/25 11:57:13;;;;;;;10.27;7.00;;;11.40;95.20;;;;;;4996003;28;20037;-87
2023/10/25 11:59:39;;;;;;;154.50;63.78;;;11.40;95.40;;;;;;4947574;28;20058;-87
2023/10/25 12:02:05;;;;;;;34.67;16.05;;;11.40;95.10;;;;;;4980577;28;20046;-85
2023/10/25 12:04:30;;;;;;;23.48;13.77;;;11.40;95.20;;;;;;4980665;28;20042;-87
2023/10/25 12:06:56;;;;;;;11.07;6.93;;;11.40;95.20;;;;;;4963896;28;20500;-87
2023/10/25 12:09:22;;;;;;;10.43;6.97;;;11.40;95.20;;;;;;4963702;28;20045;-87
2023/10/25 12:11:47;;;;;;;9.88;6.70;;;11.50;95.10;;;;;;4964424;28;20044;-86
2023/10/25 12:14:13;;;;;;;10.48;7.00;;;11.50;95.20;;;;;;4967067;28;20045;-87
2023/10/25 12:16:39;;;;;;;9.50;7.28;;;11.50;95.20;;;;;;4948749;28;20129;-87
2023/10/25 12:19:04;;;;;;;13.68;6.88;;;11.50;95.00;;;;;;4967482;28;20080;-87
2023/10/25 12:21:32;;;;;;;11.80;7.50;;;11.50;95.20;;;;;;4968478;28;20044;-87
2023/10/25 12:23:57;;;;;;;9.43;7.13;;;11.50;95.20;;;;;;4967527;28;20541;-88
2023/10/25 12:26:23;;;;;;;15.13;7.03;;;11.60;95.20;;;;;;4967355;28;20053;-86
2023/10/25 12:28:49;;;;;;;12.95;6.97;;;11.60;95.20;;;;;;4979524;28;20041;-87
2023/10/25 12:31:14;;;;;;;11.63;6.93;;;11.50;95.00;;;;;;4963689;28;20073;-87
2023/10/25 12:33:40;;;;;;;11.48;6.93;;;11.50;95.20;;;;;;4947331;28;20121;-87
2023/10/25 12:36:06;;;;;;;10.00;7.20;;;11.50;95.10;;;;;;4947744;28;20045;-88
2023/10/25 12:38:31;;;;;;;12.80;7.22;;;11.60;95.10;;;;;;4964123;28;20054;-87
2023/10/25 12:40:57;;;;;;;9.43;7.43;;;11.60;95.10;;;;;;4983917;28;20038;-89
2023/10/25 12:43:23;;;;;;;13.35;6.95;;;11.60;95.10;;;;;;4963502;28;20048;-88